createdAt,value
2017-05-07T00:00:00.478Z,3.07
2017-05-07T00:01:01.084Z,3.11
2017-05-07T00:02:01.691Z,3.07
2017-05-07T00:03:02.330Z,2.98
2017-05-07T00:04:02.963Z,3.00
2017-05-07T00:05:03.551Z,2.82
2017-05-07T00:06:04.191Z,2.82
2017-05-07T00:07:04.808Z,3.00
2017-05-07T00:08:05.450Z,2.92
2017-05-07T00:09:06.065Z,2.89
2017-05-07T00:10:06.666Z,2.98
2017-05-07T00:11:07.308Z,2.97
2017-05-07T00:12:07.921Z,2.90
2017-05-07T00:13:08.534Z,2.98
2017-05-07T00:14:09.136Z,2.98
2017-05-07T00:15:09.775Z,2.92
2017-05-07T00:16:10.389Z,2.95
2017-05-07T00:17:10.991Z,2.93
2017-05-07T00:18:11.598Z,2.95
2017-05-07T00:19:12.205Z,2.98
2017-05-07T00:20:12.816Z,2.97
2017-05-07T00:21:13.418Z,3.01
2017-05-07T00:22:14.025Z,2.97
2017-05-07T00:23:14.635Z,2.95
2017-05-07T00:24:15.281Z,2.95
2017-05-07T00:25:15.886Z,2.95
2017-05-07T00:26:16.497Z,2.90
2017-05-07T00:27:17.113Z,2.93
2017-05-07T00:28:17.750Z,2.92
2017-05-07T00:29:18.357Z,2.95
2017-05-07T00:30:18.964Z,2.93
2017-05-07T00:31:19.574Z,2.93
2017-05-07T00:32:20.181Z,2.90
2017-05-07T00:33:20.789Z,2.80
2017-05-07T00:34:21.396Z,2.90
2017-05-07T00:35:22.002Z,2.83
2017-05-07T00:36:22.642Z,2.93
2017-05-07T00:37:23.249Z,2.93
2017-05-07T00:38:23.863Z,2.86
2017-05-07T00:39:24.468Z,2.90
2017-05-07T00:40:25.085Z,2.87
2017-05-07T00:41:25.689Z,2.82
2017-05-07T00:42:26.301Z,2.77
2017-05-07T00:43:26.906Z,2.82
2017-05-07T00:44:27.553Z,2.72
2017-05-07T00:45:28.165Z,2.51
2017-05-07T00:46:28.769Z,2.56
2017-05-07T00:47:29.415Z,2.47
2017-05-07T00:48:30.063Z,2.51
2017-05-07T00:49:30.678Z,2.62
2017-05-07T00:50:31.312Z,2.56
2017-05-07T00:51:31.919Z,2.57
2017-05-07T00:52:32.541Z,2.64
2017-05-07T00:53:33.154Z,2.61
2017-05-07T00:54:33.764Z,2.65
2017-05-07T00:55:34.377Z,2.75
2017-05-07T00:56:34.979Z,2.69
2017-05-07T00:57:35.620Z,2.71
2017-05-07T00:58:36.225Z,2.82
2017-05-07T00:59:36.833Z,2.75
2017-05-07T01:00:37.443Z,2.74
2017-05-07T01:01:38.050Z,2.75
2017-05-07T01:02:38.689Z,2.79
2017-05-07T01:03:39.295Z,2.77
2017-05-07T01:04:39.903Z,2.77
2017-05-07T01:05:40.512Z,2.82
2017-05-07T01:06:41.121Z,2.79
2017-05-07T01:07:41.729Z,2.85
2017-05-07T01:08:42.336Z,2.83
2017-05-07T01:09:42.943Z,2.82
2017-05-07T01:10:43.549Z,2.90
2017-05-07T01:11:44.158Z,2.93
2017-05-07T01:12:44.766Z,2.86
2017-05-07T01:13:45.372Z,2.97
2017-05-07T01:14:45.979Z,2.95
2017-05-07T01:15:46.618Z,3.01
2017-05-07T01:16:47.225Z,3.00
2017-05-07T01:17:47.839Z,3.07
2017-05-07T01:18:48.441Z,3.16
2017-05-07T01:19:49.056Z,3.16
2017-05-07T01:20:49.661Z,3.25
2017-05-07T01:21:50.269Z,3.29
2017-05-07T01:22:50.878Z,3.26
2017-05-07T01:23:51.485Z,3.36
2017-05-07T01:24:52.099Z,3.23
2017-05-07T01:25:52.704Z,3.36
2017-05-07T01:26:53.317Z,3.25
2017-05-07T01:27:53.921Z,3.25
2017-05-07T01:28:54.533Z,3.31
2017-05-07T01:29:55.138Z,3.29
2017-05-07T01:30:55.748Z,3.25
2017-05-07T01:31:56.356Z,3.19
2017-05-07T01:32:56.970Z,3.18
2017-05-07T01:33:57.585Z,3.11
2017-05-07T01:34:58.192Z,3.14
2017-05-07T01:35:58.796Z,3.19
2017-05-07T01:36:59.437Z,3.21
2017-05-07T01:38:00.094Z,3.14
2017-05-07T01:39:00.708Z,3.16
2017-05-07T01:40:01.314Z,3.21
2017-05-07T01:41:01.922Z,3.19
2017-05-07T01:42:02.529Z,3.23
2017-05-07T01:43:03.194Z,3.25
2017-05-07T01:44:03.798Z,3.25
2017-05-07T01:45:04.405Z,3.19
2017-05-07T01:46:05.012Z,3.26
2017-05-07T01:47:05.626Z,3.31
2017-05-07T01:48:06.240Z,3.42
2017-05-07T01:49:06.851Z,3.40
2017-05-07T01:50:07.463Z,3.37
2017-05-07T01:51:08.067Z,3.42
2017-05-07T01:52:08.681Z,3.37
2017-05-07T01:53:09.284Z,3.40
2017-05-07T01:54:09.893Z,3.42
2017-05-07T01:55:10.501Z,3.44
2017-05-07T01:56:11.109Z,3.40
2017-05-07T01:57:11.720Z,3.42
2017-05-07T01:58:12.326Z,3.50
2017-05-07T01:59:12.968Z,3.41
2017-05-07T02:00:13.575Z,3.42
2017-05-07T02:01:14.190Z,3.50
2017-05-07T02:02:14.796Z,3.47
2017-05-07T02:03:15.403Z,3.41
2017-05-07T02:04:16.012Z,3.42
2017-05-07T02:05:16.618Z,3.50
2017-05-07T02:06:17.225Z,3.55
2017-05-07T02:07:17.833Z,3.47
2017-05-07T02:08:18.444Z,3.50
2017-05-07T02:09:19.048Z,3.56
2017-05-07T02:10:19.690Z,3.59
2017-05-07T02:11:20.328Z,3.56
2017-05-07T02:12:20.935Z,3.56
2017-05-07T02:13:21.599Z,3.48
2017-05-07T02:14:22.205Z,3.60
2017-05-07T02:15:22.814Z,3.60
2017-05-07T02:16:23.421Z,3.60
2017-05-07T02:17:24.029Z,3.58
2017-05-07T02:18:24.637Z,3.59
2017-05-07T02:19:25.247Z,3.53
2017-05-07T02:20:25.886Z,3.45
2017-05-07T02:21:26.494Z,3.37
2017-05-07T02:22:27.112Z,3.42
2017-05-07T02:23:27.742Z,3.42
2017-05-07T02:24:28.321Z,3.45
2017-05-07T02:25:28.930Z,3.47
2017-05-07T02:26:29.537Z,3.37
2017-05-07T02:27:30.151Z,3.48
2017-05-07T02:28:30.758Z,3.44
2017-05-07T02:29:31.374Z,3.42
2017-05-07T02:30:31.985Z,3.41
2017-05-07T02:31:32.588Z,3.42
2017-05-07T02:32:33.196Z,3.40
2017-05-07T02:33:33.852Z,3.34
2017-05-07T02:34:34.462Z,3.41
2017-05-07T02:35:35.071Z,3.45
2017-05-07T02:36:35.680Z,3.51
2017-05-07T02:37:36.287Z,3.45
2017-05-07T02:38:36.903Z,3.45
2017-05-07T02:39:37.507Z,3.53
2017-05-07T02:40:38.144Z,3.56
2017-05-07T02:41:38.751Z,3.47
2017-05-07T02:42:39.360Z,3.56
2017-05-07T02:43:39.968Z,3.58
2017-05-07T02:44:40.575Z,3.56
2017-05-07T02:45:41.213Z,3.62
2017-05-07T02:46:41.834Z,3.59
2017-05-07T02:47:42.432Z,3.63
2017-05-07T02:48:43.040Z,3.65
2017-05-07T02:49:43.648Z,3.63
2017-05-07T02:50:44.256Z,3.70
2017-05-07T02:51:44.896Z,3.74
2017-05-07T02:52:45.504Z,3.65
2017-05-07T02:53:46.111Z,3.69
2017-05-07T02:54:46.722Z,3.62
2017-05-07T02:55:47.331Z,3.74
2017-05-07T02:56:47.940Z,3.70
2017-05-07T02:57:48.546Z,3.68
2017-05-07T02:58:49.195Z,3.68
2017-05-07T02:59:49.798Z,3.70
2017-05-07T03:00:50.404Z,3.62
2017-05-07T03:01:51.013Z,3.69
2017-05-07T03:02:51.654Z,3.63
2017-05-07T03:03:52.260Z,3.68
2017-05-07T03:04:52.868Z,3.66
2017-05-07T03:05:53.484Z,3.55
2017-05-07T03:06:54.095Z,3.63
2017-05-07T03:07:54.699Z,3.51
2017-05-07T03:08:55.357Z,3.63
2017-05-07T03:09:55.964Z,3.53
2017-05-07T03:10:56.574Z,3.56
2017-05-07T03:11:57.184Z,3.59
2017-05-07T03:12:57.795Z,3.56
2017-05-07T03:13:58.399Z,3.55
2017-05-07T03:14:59.040Z,3.59
2017-05-07T03:15:59.646Z,3.50
2017-05-07T03:17:00.287Z,3.47
2017-05-07T03:18:00.896Z,3.48
2017-05-07T03:19:01.503Z,3.48
2017-05-07T03:20:02.119Z,3.48
2017-05-07T03:21:02.730Z,3.51
2017-05-07T03:22:03.334Z,3.41
2017-05-07T03:23:03.942Z,3.45
2017-05-07T03:24:04.599Z,3.41
2017-05-07T03:25:05.208Z,3.51
2017-05-07T03:26:05.816Z,3.45
2017-05-07T03:27:06.424Z,3.48
2017-05-07T03:28:07.038Z,3.48
2017-05-07T03:29:07.642Z,3.47
2017-05-07T03:30:08.248Z,3.45
2017-05-07T03:31:08.856Z,3.48
2017-05-07T03:32:09.471Z,3.56
2017-05-07T03:33:10.077Z,3.56
2017-05-07T03:34:10.737Z,3.55
2017-05-07T03:35:11.345Z,3.51
2017-05-07T03:36:11.955Z,3.55
2017-05-07T03:37:12.600Z,3.50
2017-05-07T03:38:13.211Z,3.55
2017-05-07T03:39:13.817Z,3.59
2017-05-07T03:40:14.423Z,3.51
2017-05-07T03:41:15.032Z,3.55
2017-05-07T03:42:15.640Z,3.50
2017-05-07T03:43:16.246Z,3.47
2017-05-07T03:44:16.855Z,3.55
2017-05-07T03:45:17.471Z,3.44
2017-05-07T03:46:18.075Z,3.51
2017-05-07T03:47:18.717Z,3.45
2017-05-07T03:48:19.324Z,3.55
2017-05-07T03:49:19.931Z,3.58
2017-05-07T03:50:20.547Z,3.51
2017-05-07T03:51:21.158Z,3.51
2017-05-07T03:52:21.761Z,3.47
2017-05-07T03:53:22.368Z,3.42
2017-05-07T03:54:22.973Z,3.41
2017-05-07T03:55:23.581Z,3.41
2017-05-07T03:56:24.192Z,3.45
2017-05-07T03:57:24.798Z,3.40
2017-05-07T03:58:25.412Z,3.40
2017-05-07T03:59:26.022Z,3.44
2017-05-07T04:00:26.632Z,3.41
2017-05-07T04:01:27.235Z,3.40
2017-05-07T04:02:27.843Z,3.44
2017-05-07T04:03:28.460Z,3.41
2017-05-07T04:04:29.060Z,3.45
2017-05-07T04:05:29.668Z,3.41
2017-05-07T04:06:30.284Z,3.34
2017-05-07T04:07:30.889Z,3.40
2017-05-07T04:08:31.499Z,3.44
2017-05-07T04:09:32.153Z,3.37
2017-05-07T04:10:32.761Z,3.45
2017-05-07T04:11:33.368Z,3.44
2017-05-07T04:12:33.976Z,3.55
2017-05-07T04:13:34.584Z,3.51
2017-05-07T04:14:35.197Z,3.58
2017-05-07T04:15:35.803Z,3.48
2017-05-07T04:16:36.444Z,3.47
2017-05-07T04:17:37.059Z,3.50
2017-05-07T04:18:37.664Z,3.50
2017-05-07T04:19:38.275Z,3.44
2017-05-07T04:20:38.883Z,3.45
2017-05-07T04:21:39.498Z,3.51
2017-05-07T04:22:40.110Z,3.50
2017-05-07T04:23:40.720Z,3.56
2017-05-07T04:24:41.374Z,3.55
2017-05-07T04:25:41.984Z,3.56
2017-05-07T04:26:42.592Z,3.59
2017-05-07T04:27:43.234Z,3.55
2017-05-07T04:28:43.847Z,3.51
2017-05-07T04:29:44.501Z,3.55
2017-05-07T04:30:45.110Z,3.47
2017-05-07T04:31:45.720Z,3.51
2017-05-07T04:32:46.328Z,3.47
2017-05-07T04:33:46.937Z,3.48
2017-05-07T04:34:47.546Z,3.53
2017-05-07T04:35:48.155Z,3.45
2017-05-07T04:36:48.773Z,3.40
2017-05-07T04:37:49.412Z,3.34
2017-05-07T04:38:50.020Z,3.40
2017-05-07T04:39:50.628Z,3.29
2017-05-07T04:40:51.237Z,3.22
2017-05-07T04:41:51.853Z,3.34
2017-05-07T04:42:52.465Z,3.26
2017-05-07T04:43:53.106Z,3.25
2017-05-07T04:44:53.716Z,3.22
2017-05-07T04:45:54.334Z,3.36
2017-05-07T04:46:54.947Z,3.40
2017-05-07T04:47:55.552Z,3.37
2017-05-07T04:48:56.165Z,3.36
2017-05-07T04:49:56.770Z,3.36
2017-05-07T04:50:57.386Z,3.42
2017-05-07T04:51:57.993Z,3.44
2017-05-07T04:52:58.606Z,3.37
2017-05-07T04:53:59.210Z,3.48
2017-05-07T04:54:59.825Z,3.40
2017-05-07T04:56:00.439Z,3.37
2017-05-07T04:57:01.043Z,3.32
2017-05-07T04:58:01.684Z,3.31
2017-05-07T04:59:02.300Z,3.34
2017-05-07T05:00:02.905Z,3.23
2017-05-07T05:01:03.519Z,3.26
2017-05-07T05:02:04.135Z,3.36
2017-05-07T05:03:04.748Z,3.25
2017-05-07T05:04:05.354Z,3.23
2017-05-07T05:05:05.992Z,3.25
2017-05-07T05:06:06.600Z,3.25
2017-05-07T05:07:07.210Z,3.40
2017-05-07T05:08:07.816Z,3.34
2017-05-07T05:09:08.432Z,3.32
2017-05-07T05:10:09.037Z,3.41
2017-05-07T05:11:09.646Z,3.40
2017-05-07T05:12:10.256Z,3.41
2017-05-07T05:13:10.865Z,3.47
2017-05-07T05:14:11.474Z,3.48
2017-05-07T05:15:12.132Z,3.55
2017-05-07T05:16:12.747Z,3.53
2017-05-07T05:17:13.352Z,3.48
2017-05-07T05:18:13.964Z,3.55
2017-05-07T05:19:14.574Z,3.56
2017-05-07T05:20:15.182Z,3.66
2017-05-07T05:21:15.800Z,3.56
2017-05-07T05:22:16.402Z,3.68
2017-05-07T05:23:17.011Z,3.60
2017-05-07T05:24:17.619Z,3.65
2017-05-07T05:25:18.235Z,3.62
2017-05-07T05:26:18.848Z,3.69
2017-05-07T05:27:19.489Z,3.74
2017-05-07T05:28:20.100Z,3.66
2017-05-07T05:29:20.708Z,3.74
2017-05-07T05:30:21.316Z,3.63
2017-05-07T05:31:21.925Z,3.60
2017-05-07T05:32:22.534Z,3.59
2017-05-07T05:33:23.144Z,3.60
2017-05-07T05:34:23.760Z,3.60
2017-05-07T05:35:24.452Z,3.66
2017-05-07T05:36:25.061Z,3.65
2017-05-07T05:37:25.672Z,3.65
2017-05-07T05:38:26.288Z,3.60
2017-05-07T05:39:26.930Z,3.62
2017-05-07T05:40:27.542Z,3.69
2017-05-07T05:41:28.148Z,3.62
2017-05-07T05:42:28.757Z,3.69
2017-05-07T05:43:29.398Z,3.62
2017-05-07T05:44:30.007Z,3.60
2017-05-07T05:45:30.666Z,3.68
2017-05-07T05:46:31.282Z,3.60
2017-05-07T05:47:31.889Z,3.63
2017-05-07T05:48:32.497Z,3.62
2017-05-07T05:49:33.107Z,3.65
2017-05-07T05:50:33.718Z,3.48
2017-05-07T05:51:34.333Z,3.56
2017-05-07T05:52:34.938Z,3.60
2017-05-07T05:53:35.553Z,3.56
2017-05-07T05:54:36.160Z,3.55
2017-05-07T05:55:36.819Z,3.51
2017-05-07T05:56:37.428Z,3.51
2017-05-07T05:57:38.043Z,3.51
2017-05-07T05:58:38.656Z,3.56
2017-05-07T05:59:39.267Z,3.47
2017-05-07T06:00:39.874Z,3.45
2017-05-07T06:01:40.483Z,3.44
2017-05-07T06:02:41.091Z,3.44
2017-05-07T06:03:41.733Z,3.37
2017-05-07T06:04:42.342Z,3.50
2017-05-07T06:05:42.950Z,3.55
2017-05-07T06:06:43.569Z,3.48
2017-05-07T06:07:44.174Z,3.50
2017-05-07T06:08:44.781Z,3.59
2017-05-07T06:09:45.421Z,3.53
2017-05-07T06:10:46.029Z,3.56
2017-05-07T06:11:46.637Z,3.51
2017-05-07T06:12:47.245Z,3.47
2017-05-07T06:13:47.857Z,3.55
2017-05-07T06:14:48.467Z,3.51
2017-05-07T06:15:49.082Z,3.50
2017-05-07T06:16:49.694Z,3.40
2017-05-07T06:17:50.300Z,3.37
2017-05-07T06:18:50.908Z,3.44
2017-05-07T06:19:51.515Z,3.56
2017-05-07T06:20:52.173Z,3.40
2017-05-07T06:21:52.785Z,3.42
2017-05-07T06:22:53.393Z,3.41
2017-05-07T06:23:54.043Z,3.44
2017-05-07T06:24:54.648Z,3.42
2017-05-07T06:25:55.315Z,3.44
2017-05-07T06:26:55.956Z,3.48
2017-05-07T06:27:56.596Z,3.48
2017-05-07T06:28:57.213Z,3.48
2017-05-07T06:29:57.824Z,3.44
2017-05-07T06:30:58.436Z,3.40
2017-05-07T06:31:59.043Z,3.34
2017-05-07T06:32:59.654Z,3.44
2017-05-07T06:34:00.263Z,3.40
2017-05-07T06:35:00.873Z,3.34
2017-05-07T06:36:01.514Z,3.37
2017-05-07T06:37:02.123Z,3.36
2017-05-07T06:38:02.731Z,3.25
2017-05-07T06:39:03.339Z,3.25
2017-05-07T06:40:03.980Z,3.23
2017-05-07T06:41:04.640Z,3.29
2017-05-07T06:42:05.249Z,3.40
2017-05-07T06:43:05.857Z,3.34
2017-05-07T06:44:06.476Z,3.22
2017-05-07T06:45:07.080Z,3.42
2017-05-07T06:46:07.695Z,3.41
2017-05-07T06:47:08.302Z,3.41
2017-05-07T06:48:08.911Z,3.37
2017-05-07T06:49:09.523Z,3.32
2017-05-07T06:50:10.169Z,3.36
2017-05-07T06:51:10.775Z,3.37
2017-05-07T06:52:11.383Z,3.55
2017-05-07T06:53:11.997Z,3.50
2017-05-07T06:54:12.605Z,3.47
2017-05-07T06:55:13.214Z,3.45
2017-05-07T06:56:13.858Z,3.50
2017-05-07T06:57:14.468Z,3.53
2017-05-07T06:58:15.080Z,3.48
2017-05-07T06:59:15.691Z,3.47
2017-05-07T07:00:16.307Z,3.44
2017-05-07T07:01:16.924Z,3.40
2017-05-07T07:02:17.569Z,3.47
2017-05-07T07:03:18.178Z,3.36
2017-05-07T07:04:18.797Z,3.40
2017-05-07T07:05:19.405Z,3.42
2017-05-07T07:06:20.012Z,3.45
2017-05-07T07:07:20.625Z,3.51
2017-05-07T07:08:21.243Z,3.47
2017-05-07T07:09:21.889Z,3.53
2017-05-07T07:10:22.509Z,3.77
2017-05-07T07:11:23.114Z,3.69
2017-05-07T07:12:23.732Z,3.63
2017-05-07T07:13:24.342Z,3.70
2017-05-07T07:14:24.960Z,3.76
2017-05-07T07:15:25.568Z,3.69
2017-05-07T07:16:26.179Z,3.80
2017-05-07T07:17:26.789Z,3.76
2017-05-07T07:18:27.402Z,3.81
2017-05-07T07:19:28.014Z,3.81
2017-05-07T07:20:28.624Z,3.69
2017-05-07T07:21:29.294Z,3.77
2017-05-07T07:22:29.902Z,3.70
2017-05-07T07:23:30.522Z,3.65
2017-05-07T07:24:31.129Z,3.66
2017-05-07T07:25:31.743Z,3.62
2017-05-07T07:26:32.353Z,3.70
2017-05-07T07:27:32.997Z,3.74
2017-05-07T07:28:33.605Z,3.60
2017-05-07T07:29:34.217Z,3.62
2017-05-07T07:30:34.836Z,3.63
2017-05-07T07:31:35.443Z,3.66
2017-05-07T07:32:36.054Z,3.59
2017-05-07T07:33:36.673Z,3.73
2017-05-07T07:34:37.279Z,3.66
2017-05-07T07:35:37.891Z,3.63
2017-05-07T07:36:38.503Z,3.69
2017-05-07T07:37:39.122Z,3.66
2017-05-07T07:38:39.773Z,3.70
2017-05-07T07:39:40.382Z,3.81
2017-05-07T07:40:40.992Z,3.87
2017-05-07T07:41:41.602Z,3.88
2017-05-07T07:42:42.216Z,3.86
2017-05-07T07:43:42.836Z,3.81
2017-05-07T07:44:43.444Z,3.78
2017-05-07T07:45:44.055Z,3.87
2017-05-07T07:46:44.665Z,3.83
2017-05-07T07:47:45.276Z,3.91
2017-05-07T07:48:45.896Z,3.91
2017-05-07T07:49:46.501Z,3.84
2017-05-07T07:50:47.114Z,3.80
2017-05-07T07:51:47.772Z,3.80
2017-05-07T07:52:48.417Z,3.70
2017-05-07T07:53:49.030Z,3.65
2017-05-07T07:54:49.670Z,3.63
2017-05-07T07:55:50.280Z,3.74
2017-05-07T07:56:50.892Z,3.60
2017-05-07T07:57:51.540Z,3.76
2017-05-07T07:58:52.157Z,3.68
2017-05-07T07:59:52.764Z,3.77
2017-05-07T08:00:53.375Z,3.88
2017-05-07T08:01:53.990Z,3.99
2017-05-07T08:02:54.628Z,4.05
2017-05-07T08:03:55.238Z,4.10
2017-05-07T08:04:55.857Z,4.08
2017-05-07T08:05:56.466Z,4.08
2017-05-07T08:06:57.077Z,4.10
2017-05-07T08:07:57.687Z,4.10
2017-05-07T08:08:58.299Z,3.99
2017-05-07T08:09:58.916Z,3.91
2017-05-07T08:10:59.521Z,3.98
2017-05-07T08:12:00.134Z,4.04
2017-05-07T08:13:00.747Z,4.05
2017-05-07T08:14:01.361Z,4.22
2017-05-07T08:15:01.972Z,4.31
2017-05-07T08:16:02.591Z,4.34
2017-05-07T08:17:03.250Z,4.48
2017-05-07T08:18:03.861Z,4.59
2017-05-07T08:19:04.513Z,4.55
2017-05-07T08:20:05.140Z,4.67
2017-05-07T08:21:05.733Z,4.67
2017-05-07T08:22:06.376Z,4.62
2017-05-07T08:23:06.986Z,4.68
2017-05-07T08:24:07.597Z,4.70
2017-05-07T08:25:08.210Z,4.75
2017-05-07T08:26:08.823Z,4.75
2017-05-07T08:27:09.434Z,4.82
2017-05-07T08:28:10.054Z,4.84
2017-05-07T08:29:10.661Z,4.94
2017-05-07T08:30:11.271Z,4.92
2017-05-07T08:31:11.885Z,4.97
2017-05-07T08:32:12.499Z,5.00
2017-05-07T08:33:13.114Z,4.99
2017-05-07T08:34:13.726Z,4.97
2017-05-07T08:35:14.338Z,5.05
2017-05-07T08:36:14.948Z,5.05
2017-05-07T08:37:15.569Z,5.17
2017-05-07T08:38:16.185Z,5.15
2017-05-07T08:39:16.794Z,5.18
2017-05-07T08:40:17.405Z,5.12
2017-05-07T08:41:18.017Z,5.12
2017-05-07T08:42:18.635Z,5.07
2017-05-07T08:43:19.248Z,5.02
2017-05-07T08:44:19.857Z,4.96
2017-05-07T08:45:20.475Z,5.04
2017-05-07T08:46:21.090Z,5.10
2017-05-07T08:47:21.699Z,5.29
2017-05-07T08:48:22.312Z,5.21
2017-05-07T08:49:22.932Z,5.26
2017-05-07T08:50:23.541Z,5.35
2017-05-07T08:51:24.152Z,5.38
2017-05-07T08:52:24.776Z,5.48
2017-05-07T08:53:25.380Z,5.46
2017-05-07T08:54:25.994Z,5.56
2017-05-07T08:55:26.645Z,5.57
2017-05-07T08:56:27.253Z,5.53
2017-05-07T08:57:27.867Z,5.59
2017-05-07T08:58:28.483Z,5.73
2017-05-07T08:59:29.090Z,5.68
2017-05-07T09:00:29.703Z,5.83
2017-05-07T09:01:30.356Z,5.91
2017-05-07T09:02:30.968Z,5.91
2017-05-07T09:03:31.580Z,6.01
2017-05-07T09:04:32.200Z,5.97
2017-05-07T09:05:32.808Z,6.01
2017-05-07T09:06:33.422Z,5.91
2017-05-07T09:07:34.044Z,5.73
2017-05-07T09:08:34.663Z,5.71
2017-05-07T09:09:35.271Z,5.80
2017-05-07T09:10:35.883Z,5.76
2017-05-07T09:11:36.496Z,5.64
2017-05-07T09:12:37.116Z,5.66
2017-05-07T09:13:37.768Z,5.65
2017-05-07T09:14:38.377Z,5.73
2017-05-07T09:15:38.989Z,5.65
2017-05-07T09:16:39.602Z,5.80
2017-05-07T09:17:40.222Z,5.75
2017-05-07T09:18:40.831Z,5.80
2017-05-07T09:19:41.444Z,5.89
2017-05-07T09:20:42.055Z,5.94
2017-05-07T09:21:42.667Z,6.02
2017-05-07T09:22:43.312Z,5.97
2017-05-07T09:23:43.922Z,6.01
2017-05-07T09:24:44.534Z,6.07
2017-05-07T09:25:45.147Z,5.93
2017-05-07T09:26:45.770Z,5.94
2017-05-07T09:27:46.378Z,5.97
2017-05-07T09:28:46.992Z,6.05
2017-05-07T09:29:47.603Z,6.08
2017-05-07T09:30:48.215Z,6.11
2017-05-07T09:31:48.830Z,6.19
2017-05-07T09:32:49.451Z,6.20
2017-05-07T09:33:50.058Z,6.27
2017-05-07T09:34:50.678Z,6.39
2017-05-07T09:35:51.294Z,6.46
2017-05-07T09:36:51.907Z,6.54
2017-05-07T09:37:52.517Z,6.59
2017-05-07T09:38:53.137Z,6.59
2017-05-07T09:39:53.752Z,6.49
2017-05-07T09:40:54.363Z,6.31
2017-05-07T09:41:54.978Z,6.24
2017-05-07T09:42:55.597Z,6.36
2017-05-07T09:43:56.206Z,6.28
2017-05-07T09:44:56.819Z,6.38
2017-05-07T09:45:57.432Z,6.30
2017-05-07T09:46:58.043Z,6.33
2017-05-07T09:47:58.657Z,6.39
2017-05-07T09:48:59.304Z,6.41
2017-05-07T09:49:59.946Z,6.41
2017-05-07T09:51:00.544Z,6.52
2017-05-07T09:52:01.157Z,6.67
2017-05-07T09:53:01.802Z,6.66
2017-05-07T09:54:02.415Z,6.70
2017-05-07T09:55:03.061Z,6.66
2017-05-07T09:56:03.684Z,6.78
2017-05-07T09:57:04.285Z,6.78
2017-05-07T09:58:04.927Z,6.74
2017-05-07T09:59:05.525Z,6.67
2017-05-07T10:00:06.165Z,6.64
2017-05-07T10:01:06.764Z,6.60
2017-05-07T10:02:07.378Z,6.75
2017-05-07T10:03:07.992Z,6.85
2017-05-07T10:04:08.605Z,6.95
2017-05-07T10:05:09.217Z,6.99
2017-05-07T10:06:09.860Z,6.96
2017-05-07T10:07:10.459Z,6.87
2017-05-07T10:08:11.103Z,6.85
2017-05-07T10:09:11.749Z,6.75
2017-05-07T10:10:12.363Z,6.67
2017-05-07T10:11:13.001Z,6.67
2017-05-07T10:12:13.608Z,6.69
2017-05-07T10:13:14.223Z,6.72
2017-05-07T10:14:14.834Z,6.67
2017-05-07T10:15:15.451Z,6.54
2017-05-07T10:16:16.057Z,6.41
2017-05-07T10:17:16.670Z,6.28
2017-05-07T10:18:17.290Z,6.20
2017-05-07T10:19:17.905Z,6.33
2017-05-07T10:20:18.516Z,6.31
2017-05-07T10:21:19.135Z,6.44
2017-05-07T10:22:19.744Z,6.51
2017-05-07T10:23:20.391Z,6.52
2017-05-07T10:24:21.010Z,6.46
2017-05-07T10:25:21.621Z,6.38
2017-05-07T10:26:22.234Z,6.16
2017-05-07T10:27:22.851Z,5.97
2017-05-07T10:28:23.466Z,5.84
2017-05-07T10:29:24.072Z,5.86
2017-05-07T10:30:24.687Z,6.02
2017-05-07T10:31:25.305Z,6.19
2017-05-07T10:32:25.920Z,6.31
2017-05-07T10:33:26.584Z,6.51
2017-05-07T10:34:27.196Z,6.74
2017-05-07T10:35:27.812Z,7.13
2017-05-07T10:36:28.424Z,7.35
2017-05-07T10:37:29.037Z,7.38
2017-05-07T10:38:29.650Z,7.40
2017-05-07T10:39:30.262Z,7.35
2017-05-07T10:40:30.880Z,7.02
2017-05-07T10:41:31.500Z,6.84
2017-05-07T10:42:32.111Z,6.59
2017-05-07T10:43:32.805Z,6.41
2017-05-07T10:44:33.418Z,6.48
2017-05-07T10:45:34.029Z,6.41
2017-05-07T10:46:34.644Z,6.56
2017-05-07T10:47:35.259Z,6.66
2017-05-07T10:48:35.927Z,6.70
2017-05-07T10:49:36.537Z,6.82
2017-05-07T10:50:37.154Z,6.88
2017-05-07T10:51:37.774Z,6.93
2017-05-07T10:52:38.418Z,7.07
2017-05-07T10:53:39.042Z,7.10
2017-05-07T10:54:39.648Z,7.24
2017-05-07T10:55:40.260Z,7.42
2017-05-07T10:56:40.879Z,7.43
2017-05-07T10:57:41.531Z,7.56
2017-05-07T10:58:42.149Z,7.70
2017-05-07T10:59:42.760Z,7.75
2017-05-07T11:00:43.374Z,7.83
2017-05-07T11:01:43.986Z,7.79
2017-05-07T11:02:44.599Z,7.80
2017-05-07T11:03:45.211Z,7.77
2017-05-07T11:04:45.827Z,7.82
2017-05-07T11:05:46.440Z,7.83
2017-05-07T11:06:47.055Z,7.83
2017-05-07T11:07:47.667Z,7.85
2017-05-07T11:08:48.279Z,7.76
2017-05-07T11:09:48.892Z,7.75
2017-05-07T11:10:49.508Z,7.72
2017-05-07T11:11:50.126Z,7.88
2017-05-07T11:12:50.735Z,7.85
2017-05-07T11:13:51.400Z,7.93
2017-05-07T11:14:52.010Z,7.91
2017-05-07T11:15:52.657Z,7.95
2017-05-07T11:16:53.271Z,7.85
2017-05-07T11:17:53.887Z,7.87
2017-05-07T11:18:54.508Z,7.93
2017-05-07T11:19:55.125Z,7.90
2017-05-07T11:20:55.734Z,7.79
2017-05-07T11:21:56.347Z,7.91
2017-05-07T11:22:56.970Z,7.79
2017-05-07T11:23:57.635Z,7.90
2017-05-07T11:24:58.246Z,7.85
2017-05-07T11:25:58.861Z,7.75
2017-05-07T11:26:59.474Z,7.70
2017-05-07T11:28:00.089Z,7.56
2017-05-07T11:29:00.705Z,7.54
2017-05-07T11:30:01.353Z,7.57
2017-05-07T11:31:01.972Z,7.50
2017-05-07T11:32:02.583Z,7.57
2017-05-07T11:33:03.198Z,7.56
2017-05-07T11:34:03.811Z,7.56
2017-05-07T11:35:04.426Z,7.53
2017-05-07T11:36:05.042Z,7.60
2017-05-07T11:37:05.665Z,7.57
2017-05-07T11:38:06.312Z,7.61
2017-05-07T11:39:06.925Z,7.60
2017-05-07T11:40:07.539Z,7.57
2017-05-07T11:41:08.194Z,7.47
2017-05-07T11:42:08.836Z,7.28
2017-05-07T11:43:09.448Z,7.20
2017-05-07T11:44:10.062Z,7.23
2017-05-07T11:45:10.679Z,7.23
2017-05-07T11:46:11.291Z,7.15
2017-05-07T11:47:11.905Z,7.11
2017-05-07T11:48:12.555Z,7.05
2017-05-07T11:49:13.168Z,7.06
2017-05-07T11:50:13.784Z,7.23
2017-05-07T11:51:14.394Z,7.25
2017-05-07T11:52:15.008Z,7.31
2017-05-07T11:53:15.628Z,7.25
2017-05-07T11:54:16.489Z,7.17
2017-05-07T11:55:17.103Z,7.21
2017-05-07T11:56:17.717Z,7.20
2017-05-07T11:57:18.330Z,7.14
2017-05-07T11:58:18.942Z,7.17
2017-05-07T11:59:19.889Z,7.10
2017-05-07T12:00:20.537Z,7.07
2017-05-07T12:01:21.151Z,7.18
2017-05-07T12:02:21.797Z,7.07
2017-05-07T12:03:22.412Z,7.07
2017-05-07T12:04:23.033Z,7.06
2017-05-07T12:05:23.643Z,7.02
2017-05-07T12:06:24.263Z,6.97
2017-05-07T12:07:24.874Z,7.05
2017-05-07T12:08:25.520Z,6.92
2017-05-07T12:09:26.433Z,6.82
2017-05-07T12:10:27.048Z,6.70
2017-05-07T12:11:27.662Z,6.64
2017-05-07T12:12:28.275Z,6.59
2017-05-07T12:13:28.887Z,6.49
2017-05-07T12:14:29.501Z,6.54
2017-05-07T12:15:30.113Z,6.39
2017-05-07T12:16:30.732Z,6.52
2017-05-07T12:17:31.345Z,6.59
2017-05-07T12:18:31.957Z,6.60
2017-05-07T12:19:32.854Z,6.63
2017-05-07T12:20:33.468Z,6.78
2017-05-07T12:21:34.082Z,6.88
2017-05-07T12:22:34.695Z,6.96
2017-05-07T12:23:35.308Z,7.03
2017-05-07T12:24:36.222Z,7.14
2017-05-07T12:25:36.836Z,7.10
2017-05-07T12:26:37.450Z,7.13
2017-05-07T12:27:38.097Z,7.20
2017-05-07T12:28:38.711Z,7.23
2017-05-07T12:29:39.325Z,7.21
2017-05-07T12:30:39.946Z,7.15
2017-05-07T12:31:40.560Z,7.06
2017-05-07T12:32:41.209Z,7.10
2017-05-07T12:33:41.822Z,7.14
2017-05-07T12:34:42.735Z,7.15
2017-05-07T12:35:43.349Z,7.23
2017-05-07T12:36:43.996Z,7.07
2017-05-07T12:37:44.609Z,7.07
2017-05-07T12:38:45.223Z,7.03
2017-05-07T12:39:46.141Z,7.17
2017-05-07T12:40:46.759Z,7.07
2017-05-07T12:41:47.372Z,7.13
2017-05-07T12:42:47.983Z,7.10
2017-05-07T12:43:48.629Z,7.07
2017-05-07T12:44:49.243Z,7.05
2017-05-07T12:45:49.855Z,6.99
2017-05-07T12:46:50.474Z,6.93
2017-05-07T12:47:51.087Z,7.02
2017-05-07T12:48:51.699Z,6.99
2017-05-07T12:49:52.362Z,6.95
2017-05-07T12:50:52.982Z,6.88
2017-05-07T12:51:53.594Z,6.79
2017-05-07T12:52:54.214Z,6.81
2017-05-07T12:53:54.823Z,6.69
2017-05-07T12:54:55.493Z,6.77
2017-05-07T12:55:56.105Z,6.64
2017-05-07T12:56:56.725Z,6.66
2017-05-07T12:57:57.339Z,6.54
2017-05-07T12:58:57.949Z,6.66
2017-05-07T12:59:58.617Z,6.57
2017-05-07T13:00:59.232Z,6.56
2017-05-07T13:01:59.848Z,6.60
2017-05-07T13:03:00.457Z,6.56
2017-05-07T13:04:01.070Z,6.49
2017-05-07T13:05:01.733Z,6.38
2017-05-07T13:06:02.347Z,6.41
2017-05-07T13:07:02.993Z,6.41
2017-05-07T13:08:03.608Z,6.38
2017-05-07T13:09:04.221Z,6.28
2017-05-07T13:10:04.883Z,6.22
2017-05-07T13:11:05.502Z,6.20
2017-05-07T13:12:06.112Z,6.22
2017-05-07T13:13:06.726Z,6.09
2017-05-07T13:14:07.338Z,5.94
2017-05-07T13:15:07.958Z,6.01
2017-05-07T13:16:08.565Z,5.97
2017-05-07T13:17:09.182Z,5.86
2017-05-07T13:18:09.792Z,5.75
2017-05-07T13:19:10.406Z,5.65
2017-05-07T13:20:11.070Z,5.64
2017-05-07T13:21:11.683Z,5.65
2017-05-07T13:22:12.295Z,5.65
2017-05-07T13:23:12.908Z,5.71
2017-05-07T13:24:13.527Z,5.69
2017-05-07T13:25:14.145Z,5.72
2017-05-07T13:26:14.754Z,5.82